sensor_id;sensor_type;location;lat;lon;timestamp;temperature;humidity
61912;DHT22;49973;52.084;5.412;2022-11-20T00:01:30;-2.90;99.90
61912;DHT22;49973;52.084;5.412;2022-11-20T00:03:59;-3.00;99.90
61912;DHT22;49973;52.084;5.412;2022-11-20T00:06:28;-3.00;99.90
61912;DHT22;49973;52.084;5.412;2022-11-20T00:08:59;-3.00;99.90
61912;DHT22;49973;52.084;5.412;2022-11-20T00:11:29;-3.00;99.90
61912;DHT22;49973;52.084;5.412;2022-11-20T00:14:00;-3.00;99.90
61912;DHT22;49973;52.084;5.412;2022-11-20T00:16:31;-3.10;99.90
61912;DHT22;49973;52.084;5.412;2022-11-20T00:19:00;-3.10;99.90
61912;DHT22;49973;52.084;5.412;2022-11-20T00:21:29;-3.10;99.90
61912;DHT22;49973;52.084;5.412;2022-11-20T00:23:59;-3.10;99.90
61912;DHT22;49973;52.084;5.412;2022-11-20T00:26:29;-3.10;99.90
61912;DHT22;49973;52.084;5.412;2022-11-20T00:28:59;-3.20;99.90
61912;DHT22;49973;52.084;5.412;2022-11-20T00:31:30;-3.20;99.90
61912;DHT22;49973;52.084;5.412;2022-11-20T00:34:00;-3.20;99.90
61912;DHT22;49973;52.084;5.412;2022-11-20T00:36:31;-3.20;99.90
61912;DHT22;49973;52.084;5.412;2022-11-20T00:39:01;-3.30;99.90
61912;DHT22;49973;52.084;5.412;2022-11-20T00:41:30;-3.30;99.90
61912;DHT22;49973;52.084;5.412;2022-11-20T00:43:58;-3.30;99.90
61912;DHT22;49973;52.084;5.412;2022-11-20T00:46:27;-3.30;99.90
61912;DHT22;49973;52.084;5.412;2022-11-20T00:48:56;-3.30;99.90
61912;DHT22;49973;52.084;5.412;2022-11-20T00:51:26;-3.30;99.90
61912;DHT22;49973;52.084;5.412;2022-11-20T00:53:56;-3.30;99.90
61912;DHT22;49973;52.084;5.412;2022-11-20T00:56:26;-3.30;99.90
61912;DHT22;49973;52.084;5.412;2022-11-20T00:58:54;-3.30;99.90
61912;DHT22;49973;52.084;5.412;2022-11-20T01:01:25;-3.40;99.90
61912;DHT22;49973;52.084;5.412;2022-11-20T01:03:56;-3.40;99.90
61912;DHT22;49973;52.084;5.412;2022-11-20T01:06:27;-3.40;99.90
61912;DHT22;49973;52.084;5.412;2022-11-20T01:08:58;-3.40;99.90
61912;DHT22;49973;52.084;5.412;2022-11-20T01:11:30;-3.40;99.90
61912;DHT22;49973;52.084;5.412;2022-11-20T01:14:00;-3.40;99.90
61912;DHT22;49973;52.084;5.412;2022-11-20T01:16:30;-3.40;99.90
61912;DHT22;49973;52.084;5.412;2022-11-20T01:19:01;-3.50;99.90
61912;DHT22;49973;52.084;5.412;2022-11-20T01:21:31;-3.50;99.90
61912;DHT22;49973;52.084;5.412;2022-11-20T01:24:01;-3.50;99.90
61912;DHT22;49973;52.084;5.412;2022-11-20T01:26:32;-3.50;99.90
61912;DHT22;49973;52.084;5.412;2022-11-20T01:29:02;-3.50;99.90
61912;DHT22;49973;52.084;5.412;2022-11-20T01:31:32;-3.50;99.90
61912;DHT22;49973;52.084;5.412;2022-11-20T01:34:03;-3.50;99.90
61912;DHT22;49973;52.084;5.412;2022-11-20T01:36:33;-3.50;99.90
61912;DHT22;49973;52.084;5.412;2022-11-20T01:39:04;-3.50;99.90
61912;DHT22;49973;52.084;5.412;2022-11-20T01:41:34;-3.50;99.90
61912;DHT22;49973;52.084;5.412;2022-11-20T01:44:22;-3.50;99.90
61912;DHT22;49973;52.084;5.412;2022-11-20T01:47:12;-3.50;99.90
61912;DHT22;49973;52.084;5.412;2022-11-20T01:49:45;-3.50;99.90
61912;DHT22;49973;52.084;5.412;2022-11-20T01:52:17;-3.60;99.90
61912;DHT22;49973;52.084;5.412;2022-11-20T01:54:52;-3.60;99.90
61912;DHT22;49973;52.084;5.412;2022-11-20T01:57:25;-3.60;99.90
61912;DHT22;49973;52.084;5.412;2022-11-20T02:00:00;-3.60;99.90
61912;DHT22;49973;52.084;5.412;2022-11-20T02:02:40;-3.60;99.90
61912;DHT22;49973;52.084;5.412;2022-11-20T02:05:16;-3.70;99.90
61912;DHT22;49973;52.084;5.412;2022-11-20T02:07:46;-3.70;99.90
61912;DHT22;49973;52.084;5.412;2022-11-20T02:10:16;-3.70;99.90
61912;DHT22;49973;52.084;5.412;2022-11-20T02:12:46;-3.70;99.90
61912;DHT22;49973;52.084;5.412;2022-11-20T02:15:32;-3.70;99.90
61912;DHT22;49973;52.084;5.412;2022-11-20T02:18:01;-3.70;99.90
61912;DHT22;49973;52.084;5.412;2022-11-20T02:20:30;-3.70;99.90
61912;DHT22;49973;52.084;5.412;2022-11-20T02:23:03;-3.70;99.90
61912;DHT22;49973;52.084;5.412;2022-11-20T02:25:35;-3.70;99.90
61912;DHT22;49973;52.084;5.412;2022-11-20T02:28:05;-3.70;99.90
61912;DHT22;49973;52.084;5.412;2022-11-20T02:30:33;-3.70;99.90
61912;DHT22;49973;52.084;5.412;2022-11-20T02:33:02;-3.70;99.90
61912;DHT22;49973;52.084;5.412;2022-11-20T02:35:42;-3.80;99.90
61912;DHT22;49973;52.084;5.412;2022-11-20T02:38:11;-3.80;99.90
61912;DHT22;49973;52.084;5.412;2022-11-20T02:40:42;-3.80;99.90
61912;DHT22;49973;52.084;5.412;2022-11-20T02:43:11;-3.80;99.90
61912;DHT22;49973;52.084;5.412;2022-11-20T02:45:40;-3.80;99.90
61912;DHT22;49973;52.084;5.412;2022-11-20T02:48:09;-3.80;99.90
61912;DHT22;49973;52.084;5.412;2022-11-20T02:50:38;-3.80;99.90
61912;DHT22;49973;52.084;5.412;2022-11-20T02:53:07;-3.80;99.90
61912;DHT22;49973;52.084;5.412;2022-11-20T02:55:36;-3.80;99.90
61912;DHT22;49973;52.084;5.412;2022-11-20T02:58:06;-3.80;99.90
61912;DHT22;49973;52.084;5.412;2022-11-20T03:00:35;-3.80;99.90
61912;DHT22;49973;52.084;5.412;2022-11-20T03:03:04;-3.80;99.90
61912;DHT22;49973;52.084;5.412;2022-11-20T03:05:33;-3.80;99.90
61912;DHT22;49973;52.084;5.412;2022-11-20T03:08:02;-3.90;99.90
61912;DHT22;49973;52.084;5.412;2022-11-20T03:10:31;-3.90;99.90
61912;DHT22;49973;52.084;5.412;2022-11-20T03:12:59;-3.90;99.90
61912;DHT22;49973;52.084;5.412;2022-11-20T03:15:31;-3.90;99.90
61912;DHT22;49973;52.084;5.412;2022-11-20T03:18:02;-3.90;99.90
61912;DHT22;49973;52.084;5.412;2022-11-20T03:20:40;-3.90;99.90
61912;DHT22;49973;52.084;5.412;2022-11-20T03:23:09;-4.00;99.90
61912;DHT22;49973;52.084;5.412;2022-11-20T03:25:38;-4.00;99.90
61912;DHT22;49973;52.084;5.412;2022-11-20T03:28:12;-4.00;99.90
61912;DHT22;49973;52.084;5.412;2022-11-20T03:30:50;-4.10;99.90
61912;DHT22;49973;52.084;5.412;2022-11-20T03:33:30;-4.10;99.90
61912;DHT22;49973;52.084;5.412;2022-11-20T03:36:01;-4.10;99.90
61912;DHT22;49973;52.084;5.412;2022-11-20T03:38:30;-4.10;99.90
61912;DHT22;49973;52.084;5.412;2022-11-20T03:41:00;-4.20;99.90
61912;DHT22;49973;52.084;5.412;2022-11-20T03:43:31;-4.20;99.90
61912;DHT22;49973;52.084;5.412;2022-11-20T03:46:06;-4.20;99.90
61912;DHT22;49973;52.084;5.412;2022-11-20T03:48:38;-4.20;99.90
61912;DHT22;49973;52.084;5.412;2022-11-20T03:51:11;-4.20;99.90
61912;DHT22;49973;52.084;5.412;2022-11-20T03:53:44;-4.20;99.90
61912;DHT22;49973;52.084;5.412;2022-11-20T03:56:15;-4.20;99.90
61912;DHT22;49973;52.084;5.412;2022-11-20T03:58:48;-4.20;99.90
61912;DHT22;49973;52.084;5.412;2022-11-20T04:01:22;-4.20;99.90
61912;DHT22;49973;52.084;5.412;2022-11-20T04:04:02;-4.20;99.90
61912;DHT22;49973;52.084;5.412;2022-11-20T04:06:37;-4.20;99.90
61912;DHT22;49973;52.084;5.412;2022-11-20T04:09:18;-4.20;99.90
61912;DHT22;49973;52.084;5.412;2022-11-20T04:11:48;-4.20;99.90
61912;DHT22;49973;52.084;5.412;2022-11-20T04:14:17;-4.30;99.90
61912;DHT22;49973;52.084;5.412;2022-11-20T04:16:50;-4.20;99.90
61912;DHT22;49973;52.084;5.412;2022-11-20T04:19:19;-4.20;99.90
61912;DHT22;49973;52.084;5.412;2022-11-20T04:21:48;-4.20;99.90
61912;DHT22;49973;52.084;5.412;2022-11-20T04:24:17;-4.20;99.90
61912;DHT22;49973;52.084;5.412;2022-11-20T04:29:32;-4.30;99.90
61912;DHT22;49973;52.084;5.412;2022-11-20T04:32:04;-4.10;99.90
61912;DHT22;49973;52.084;5.412;2022-11-20T04:34:36;-4.30;99.90
61912;DHT22;49973;52.084;5.412;2022-11-20T04:37:08;-4.30;99.90
61912;DHT22;49973;52.084;5.412;2022-11-20T04:39:37;-4.30;99.90
61912;DHT22;49973;52.084;5.412;2022-11-20T04:42:11;-4.30;99.90
61912;DHT22;49973;52.084;5.412;2022-11-20T04:44:58;-4.30;99.90
61912;DHT22;49973;52.084;5.412;2022-11-20T04:47:28;-4.30;99.90
61912;DHT22;49973;52.084;5.412;2022-11-20T04:49:57;-4.30;99.90
61912;DHT22;49973;52.084;5.412;2022-11-20T04:52:29;-4.30;99.90
61912;DHT22;49973;52.084;5.412;2022-11-20T04:55:05;-4.40;99.90
61912;DHT22;49973;52.084;5.412;2022-11-20T04:57:34;-4.40;99.90
61912;DHT22;49973;52.084;5.412;2022-11-20T05:00:03;-4.40;99.90
61912;DHT22;49973;52.084;5.412;2022-11-20T05:02:33;-4.40;99.90
61912;DHT22;49973;52.084;5.412;2022-11-20T05:05:02;-4.50;99.90
61912;DHT22;49973;52.084;5.412;2022-11-20T05:07:40;-4.50;99.90
61912;DHT22;49973;52.084;5.412;2022-11-20T05:10:09;-4.50;99.90
61912;DHT22;49973;52.084;5.412;2022-11-20T05:12:39;-4.50;99.90
61912;DHT22;49973;52.084;5.412;2022-11-20T05:15:09;-4.50;99.90
61912;DHT22;49973;52.084;5.412;2022-11-20T05:17:47;-4.50;99.90
61912;DHT22;49973;52.084;5.412;2022-11-20T05:20:16;-4.50;99.90
61912;DHT22;49973;52.084;5.412;2022-11-20T05:22:45;-4.50;99.90
61912;DHT22;49973;52.084;5.412;2022-11-20T05:25:14;-4.60;99.90
61912;DHT22;49973;52.084;5.412;2022-11-20T05:27:43;-4.60;99.90
61912;DHT22;49973;52.084;5.412;2022-11-20T05:30:13;-4.70;99.90
61912;DHT22;49973;52.084;5.412;2022-11-20T05:32:43;-4.70;99.90
61912;DHT22;49973;52.084;5.412;2022-11-20T05:35:11;-4.70;99.90
61912;DHT22;49973;52.084;5.412;2022-11-20T05:37:40;-4.80;99.90
61912;DHT22;49973;52.084;5.412;2022-11-20T05:40:10;-4.80;99.90
61912;DHT22;49973;52.084;5.412;2022-11-20T05:42:39;-4.80;99.90
61912;DHT22;49973;52.084;5.412;2022-11-20T05:45:11;-4.80;99.90
61912;DHT22;49973;52.084;5.412;2022-11-20T05:47:39;-4.80;99.90
61912;DHT22;49973;52.084;5.412;2022-11-20T05:50:09;-4.80;99.90
61912;DHT22;49973;52.084;5.412;2022-11-20T05:52:38;-4.80;99.90
61912;DHT22;49973;52.084;5.412;2022-11-20T05:55:07;-4.80;99.90
61912;DHT22;49973;52.084;5.412;2022-11-20T05:57:36;-4.80;99.90
61912;DHT22;49973;52.084;5.412;2022-11-20T06:00:06;-4.70;99.90
61912;DHT22;49973;52.084;5.412;2022-11-20T06:02:35;-4.70;99.90
61912;DHT22;49973;52.084;5.412;2022-11-20T06:05:05;-4.70;99.90
61912;DHT22;49973;52.084;5.412;2022-11-20T06:07:35;-4.70;99.90
61912;DHT22;49973;52.084;5.412;2022-11-20T06:10:06;-4.80;99.90
61912;DHT22;49973;52.084;5.412;2022-11-20T06:12:35;-4.80;99.90
61912;DHT22;49973;52.084;5.412;2022-11-20T06:15:04;-4.80;99.90
61912;DHT22;49973;52.084;5.412;2022-11-20T06:17:33;-4.80;99.90
61912;DHT22;49973;52.084;5.412;2022-11-20T06:20:02;-4.80;99.90
61912;DHT22;49973;52.084;5.412;2022-11-20T06:22:32;-4.90;99.90
61912;DHT22;49973;52.084;5.412;2022-11-20T06:25:02;-4.90;99.90
61912;DHT22;49973;52.084;5.412;2022-11-20T06:27:31;-4.90;99.90
61912;DHT22;49973;52.084;5.412;2022-11-20T06:29:59;-4.90;99.90
61912;DHT22;49973;52.084;5.412;2022-11-20T06:32:28;-4.90;99.90
61912;DHT22;49973;52.084;5.412;2022-11-20T06:34:56;-4.90;99.90
61912;DHT22;49973;52.084;5.412;2022-11-20T06:37:25;-4.90;99.90
61912;DHT22;49973;52.084;5.412;2022-11-20T06:39:54;-4.90;99.90
61912;DHT22;49973;52.084;5.412;2022-11-20T06:42:24;-4.90;99.90
61912;DHT22;49973;52.084;5.412;2022-11-20T06:44:52;-4.90;99.90
61912;DHT22;49973;52.084;5.412;2022-11-20T06:47:21;-4.80;99.90
61912;DHT22;49973;52.084;5.412;2022-11-20T06:49:49;-4.80;99.90
61912;DHT22;49973;52.084;5.412;2022-11-20T06:52:20;-4.80;99.90
61912;DHT22;49973;52.084;5.412;2022-11-20T06:54:49;-4.80;99.90
61912;DHT22;49973;52.084;5.412;2022-11-20T06:57:18;-4.80;99.90
61912;DHT22;49973;52.084;5.412;2022-11-20T06:59:48;-4.70;99.90
61912;DHT22;49973;52.084;5.412;2022-11-20T07:02:17;-4.70;99.90
61912;DHT22;49973;52.084;5.412;2022-11-20T07:04:46;-4.70;99.90
61912;DHT22;49973;52.084;5.412;2022-11-20T07:07:15;-4.70;99.90
61912;DHT22;49973;52.084;5.412;2022-11-20T07:09:44;-4.70;99.90
61912;DHT22;49973;52.084;5.412;2022-11-20T07:12:13;-4.70;99.90
61912;DHT22;49973;52.084;5.412;2022-11-20T07:14:41;-4.60;99.90
61912;DHT22;49973;52.084;5.412;2022-11-20T07:17:11;-4.70;99.90
61912;DHT22;49973;52.084;5.412;2022-11-20T07:19:40;-4.60;99.90
61912;DHT22;49973;52.084;5.412;2022-11-20T07:22:10;-4.60;99.90
61912;DHT22;49973;52.084;5.412;2022-11-20T07:24:39;-4.60;99.90
61912;DHT22;49973;52.084;5.412;2022-11-20T07:27:12;-4.60;99.90
61912;DHT22;49973;52.084;5.412;2022-11-20T07:29:51;-4.60;99.90
61912;DHT22;49973;52.084;5.412;2022-11-20T07:32:23;-4.50;99.90
61912;DHT22;49973;52.084;5.412;2022-11-20T07:34:59;-4.50;99.90
61912;DHT22;49973;52.084;5.412;2022-11-20T07:37:33;-4.50;99.90
61912;DHT22;49973;52.084;5.412;2022-11-20T07:40:03;-4.40;99.90
61912;DHT22;49973;52.084;5.412;2022-11-20T07:42:32;-4.40;99.90
61912;DHT22;49973;52.084;5.412;2022-11-20T07:45:01;-4.30;99.90
61912;DHT22;49973;52.084;5.412;2022-11-20T07:47:36;-4.20;99.90
61912;DHT22;49973;52.084;5.412;2022-11-20T07:50:05;-4.10;99.90
61912;DHT22;49973;52.084;5.412;2022-11-20T07:52:34;-4.00;99.90
61912;DHT22;49973;52.084;5.412;2022-11-20T07:55:03;-3.90;99.90
61912;DHT22;49973;52.084;5.412;2022-11-20T07:57:32;-3.80;99.90
61912;DHT22;49973;52.084;5.412;2022-11-20T08:00:01;-3.70;99.90
61912;DHT22;49973;52.084;5.412;2022-11-20T08:02:39;-3.60;99.90
61912;DHT22;49973;52.084;5.412;2022-11-20T08:05:09;-3.40;99.90
61912;DHT22;49973;52.084;5.412;2022-11-20T08:07:38;-3.30;99.90
61912;DHT22;49973;52.084;5.412;2022-11-20T08:10:08;-3.20;99.90
61912;DHT22;49973;52.084;5.412;2022-11-20T08:12:44;-3.10;99.90
61912;DHT22;49973;52.084;5.412;2022-11-20T08:15:30;-3.00;99.90
61912;DHT22;49973;52.084;5.412;2022-11-20T08:18:02;-2.80;99.90
61912;DHT22;49973;52.084;5.412;2022-11-20T08:20:50;-2.70;99.90
61912;DHT22;49973;52.084;5.412;2022-11-20T08:23:19;-2.60;99.90
61912;DHT22;49973;52.084;5.412;2022-11-20T08:25:49;-2.60;99.90
61912;DHT22;49973;52.084;5.412;2022-11-20T08:28:18;-2.50;99.90
61912;DHT22;49973;52.084;5.412;2022-11-20T08:30:49;-2.40;99.90
61912;DHT22;49973;52.084;5.412;2022-11-20T08:33:19;-2.30;99.90
61912;DHT22;49973;52.084;5.412;2022-11-20T08:35:47;-2.10;99.90
61912;DHT22;49973;52.084;5.412;2022-11-20T08:38:16;-2.10;99.90
61912;DHT22;49973;52.084;5.412;2022-11-20T08:40:44;-1.90;99.90
61912;DHT22;49973;52.084;5.412;2022-11-20T08:43:33;-1.90;99.90
61912;DHT22;49973;52.084;5.412;2022-11-20T08:46:01;-1.70;99.90
61912;DHT22;49973;52.084;5.412;2022-11-20T08:48:31;-1.60;99.90
61912;DHT22;49973;52.084;5.412;2022-11-20T08:51:00;-1.50;99.90
61912;DHT22;49973;52.084;5.412;2022-11-20T08:53:28;-1.40;99.90
61912;DHT22;49973;52.084;5.412;2022-11-20T08:55:57;-1.30;99.90
61912;DHT22;49973;52.084;5.412;2022-11-20T08:58:26;-1.30;99.90
61912;DHT22;49973;52.084;5.412;2022-11-20T09:00:57;-1.20;99.90
61912;DHT22;49973;52.084;5.412;2022-11-20T09:03:25;-1.10;99.90
61912;DHT22;49973;52.084;5.412;2022-11-20T09:06:01;-1.10;99.90
61912;DHT22;49973;52.084;5.412;2022-11-20T09:08:30;-1.00;99.90
61912;DHT22;49973;52.084;5.412;2022-11-20T09:10:59;-0.90;99.90
61912;DHT22;49973;52.084;5.412;2022-11-20T09:13:29;-0.90;99.90
61912;DHT22;49973;52.084;5.412;2022-11-20T09:15:59;-0.90;99.90
61912;DHT22;49973;52.084;5.412;2022-11-20T09:18:28;-0.90;99.90
61912;DHT22;49973;52.084;5.412;2022-11-20T09:21:00;-0.80;99.90
61912;DHT22;49973;52.084;5.412;2022-11-20T09:23:32;-0.70;99.90
61912;DHT22;49973;52.084;5.412;2022-11-20T09:26:02;-0.60;99.90
61912;DHT22;49973;52.084;5.412;2022-11-20T09:28:31;-0.50;99.90
61912;DHT22;49973;52.084;5.412;2022-11-20T09:31:00;-0.40;99.90
61912;DHT22;49973;52.084;5.412;2022-11-20T09:33:29;-0.30;99.90
61912;DHT22;49973;52.084;5.412;2022-11-20T09:35:57;-0.20;99.90
61912;DHT22;49973;52.084;5.412;2022-11-20T09:38:27;0.00;99.90
61912;DHT22;49973;52.084;5.412;2022-11-20T09:40:58;0.00;99.90
61912;DHT22;49973;52.084;5.412;2022-11-20T09:43:40;0.10;99.90
61912;DHT22;49973;52.084;5.412;2022-11-20T09:46:19;0.20;99.90
61912;DHT22;49973;52.084;5.412;2022-11-20T09:49:01;0.20;99.90
61912;DHT22;49973;52.084;5.412;2022-11-20T09:51:39;0.30;99.90
61912;DHT22;49973;52.084;5.412;2022-11-20T09:54:17;0.40;99.90
61912;DHT22;49973;52.084;5.412;2022-11-20T09:56:51;0.40;99.90
61912;DHT22;49973;52.084;5.412;2022-11-20T09:59:33;0.60;99.90
61912;DHT22;49973;52.084;5.412;2022-11-20T10:02:14;0.60;99.90
61912;DHT22;49973;52.084;5.412;2022-11-20T10:04:47;0.70;99.90
61912;DHT22;49973;52.084;5.412;2022-11-20T10:07:19;0.70;99.90
61912;DHT22;49973;52.084;5.412;2022-11-20T10:10:00;0.80;99.90
61912;DHT22;49973;52.084;5.412;2022-11-20T10:12:37;0.90;99.90
61912;DHT22;49973;52.084;5.412;2022-11-20T10:15:23;1.00;99.90
61912;DHT22;49973;52.084;5.412;2022-11-20T10:18:02;1.10;99.90
61912;DHT22;49973;52.084;5.412;2022-11-20T10:20:43;1.20;99.90
61912;DHT22;49973;52.084;5.412;2022-11-20T10:23:28;1.20;99.90
61912;DHT22;49973;52.084;5.412;2022-11-20T10:26:06;1.30;99.90
61912;DHT22;49973;52.084;5.412;2022-11-20T10:28:48;1.30;99.90
61912;DHT22;49973;52.084;5.412;2022-11-20T10:31:30;1.40;99.90
61912;DHT22;49973;52.084;5.412;2022-11-20T10:34:03;1.50;99.90
61912;DHT22;49973;52.084;5.412;2022-11-20T10:36:40;1.60;99.90
61912;DHT22;49973;52.084;5.412;2022-11-20T10:39:18;1.70;99.90
61912;DHT22;49973;52.084;5.412;2022-11-20T10:41:52;1.80;99.90
61912;DHT22;49973;52.084;5.412;2022-11-20T10:44:24;1.80;99.90
61912;DHT22;49973;52.084;5.412;2022-11-20T10:47:14;1.90;99.90
61912;DHT22;49973;52.084;5.412;2022-11-20T10:49:43;2.10;99.90
61912;DHT22;49973;52.084;5.412;2022-11-20T10:52:21;2.20;99.90
61912;DHT22;49973;52.084;5.412;2022-11-20T10:54:58;2.30;99.90
61912;DHT22;49973;52.084;5.412;2022-11-20T10:57:46;2.40;99.90
61912;DHT22;49973;52.084;5.412;2022-11-20T11:00:19;2.40;99.90
61912;DHT22;49973;52.084;5.412;2022-11-20T11:02:49;2.50;99.90
61912;DHT22;49973;52.084;5.412;2022-11-20T11:05:25;2.60;99.90
61912;DHT22;49973;52.084;5.412;2022-11-20T11:07:59;2.70;99.90
61912;DHT22;49973;52.084;5.412;2022-11-20T11:10:35;2.70;99.90
61912;DHT22;49973;52.084;5.412;2022-11-20T11:13:05;2.80;99.90
61912;DHT22;49973;52.084;5.412;2022-11-20T11:15:38;2.80;99.90
61912;DHT22;49973;52.084;5.412;2022-11-20T11:18:09;2.90;99.90
61912;DHT22;49973;52.084;5.412;2022-11-20T11:20:38;2.90;99.90
61912;DHT22;49973;52.084;5.412;2022-11-20T11:23:26;3.00;99.90
61912;DHT22;49973;52.084;5.412;2022-11-20T11:25:57;3.00;99.90
61912;DHT22;49973;52.084;5.412;2022-11-20T11:28:28;3.10;99.90
61912;DHT22;49973;52.084;5.412;2022-11-20T11:30:56;3.10;99.90
61912;DHT22;49973;52.084;5.412;2022-11-20T11:33:26;3.10;99.90
61912;DHT22;49973;52.084;5.412;2022-11-20T11:35:57;3.10;99.90
61912;DHT22;49973;52.084;5.412;2022-11-20T11:38:30;3.10;99.90
61912;DHT22;49973;52.084;5.412;2022-11-20T11:40:59;3.10;99.90
61912;DHT22;49973;52.084;5.412;2022-11-20T11:43:31;3.10;99.90
61912;DHT22;49973;52.084;5.412;2022-11-20T11:46:30;3.00;99.90
61912;DHT22;49973;52.084;5.412;2022-11-20T11:49:00;3.10;99.90
61912;DHT22;49973;52.084;5.412;2022-11-20T11:51:35;3.00;99.90
61912;DHT22;49973;52.084;5.412;2022-11-20T11:54:14;3.00;99.90
61912;DHT22;49973;52.084;5.412;2022-11-20T11:56:44;3.00;99.90
61912;DHT22;49973;52.084;5.412;2022-11-20T11:59:23;3.00;99.90
61912;DHT22;49973;52.084;5.412;2022-11-20T12:01:57;2.90;99.90
61912;DHT22;49973;52.084;5.412;2022-11-20T12:04:40;3.00;99.90
61912;DHT22;49973;52.084;5.412;2022-11-20T12:07:13;3.00;99.90
61912;DHT22;49973;52.084;5.412;2022-11-20T12:10:04;3.00;99.90
61912;DHT22;49973;52.084;5.412;2022-11-20T12:12:37;3.00;99.90
61912;DHT22;49973;52.084;5.412;2022-11-20T12:15:11;3.00;99.90
61912;DHT22;49973;52.084;5.412;2022-11-20T12:17:41;3.00;99.90
61912;DHT22;49973;52.084;5.412;2022-11-20T12:20:13;3.00;99.90
61912;DHT22;49973;52.084;5.412;2022-11-20T12:22:47;3.00;99.90
61912;DHT22;49973;52.084;5.412;2022-11-20T12:25:21;3.10;99.90
61912;DHT22;49973;52.084;5.412;2022-11-20T12:28:23;3.10;99.90
61912;DHT22;49973;52.084;5.412;2022-11-20T12:31:12;3.10;99.90
61912;DHT22;49973;52.084;5.412;2022-11-20T12:34:02;3.00;99.90
61912;DHT22;49973;52.084;5.412;2022-11-20T12:36:40;3.00;99.90
61912;DHT22;49973;52.084;5.412;2022-11-20T12:39:25;2.90;99.90
61912;DHT22;49973;52.084;5.412;2022-11-20T12:42:09;2.90;99.90
61912;DHT22;49973;52.084;5.412;2022-11-20T12:45:08;2.90;99.90
61912;DHT22;49973;52.084;5.412;2022-11-20T12:47:56;2.80;99.90
61912;DHT22;49973;52.084;5.412;2022-11-20T12:50:37;2.80;99.90
61912;DHT22;49973;52.084;5.412;2022-11-20T12:53:33;2.80;99.90
61912;DHT22;49973;52.084;5.412;2022-11-20T12:56:13;2.80;99.90
61912;DHT22;49973;52.084;5.412;2022-11-20T12:58:53;2.80;99.90
61912;DHT22;49973;52.084;5.412;2022-11-20T13:01:27;2.80;99.90
61912;DHT22;49973;52.084;5.412;2022-11-20T13:04:21;2.80;99.90
61912;DHT22;49973;52.084;5.412;2022-11-20T13:06:53;2.80;99.90
61912;DHT22;49973;52.084;5.412;2022-11-20T13:09:23;2.80;99.90
61912;DHT22;49973;52.084;5.412;2022-11-20T13:12:00;2.90;99.90
61912;DHT22;49973;52.084;5.412;2022-11-20T13:14:34;2.90;99.90
61912;DHT22;49973;52.084;5.412;2022-11-20T13:17:09;2.90;99.90
61912;DHT22;49973;52.084;5.412;2022-11-20T13:19:45;2.90;99.90
61912;DHT22;49973;52.084;5.412;2022-11-20T13:22:24;2.90;99.90
61912;DHT22;49973;52.084;5.412;2022-11-20T13:24:54;2.90;99.90
61912;DHT22;49973;52.084;5.412;2022-11-20T13:27:23;2.90;99.90
61912;DHT22;49973;52.084;5.412;2022-11-20T13:30:13;2.90;99.90
61912;DHT22;49973;52.084;5.412;2022-11-20T13:32:55;2.90;99.90
61912;DHT22;49973;52.084;5.412;2022-11-20T13:35:28;2.90;99.90
61912;DHT22;49973;52.084;5.412;2022-11-20T13:38:06;2.90;99.90
61912;DHT22;49973;52.084;5.412;2022-11-20T13:40:37;2.90;99.90
61912;DHT22;49973;52.084;5.412;2022-11-20T13:43:21;2.80;99.90
61912;DHT22;49973;52.084;5.412;2022-11-20T13:45:55;2.90;99.90
61912;DHT22;49973;52.084;5.412;2022-11-20T13:48:26;2.90;99.90
61912;DHT22;49973;52.084;5.412;2022-11-20T13:51:09;2.90;99.90
61912;DHT22;49973;52.084;5.412;2022-11-20T13:54:01;2.90;99.90
61912;DHT22;49973;52.084;5.412;2022-11-20T13:56:43;2.90;99.90
61912;DHT22;49973;52.084;5.412;2022-11-20T13:59:24;2.90;99.90
61912;DHT22;49973;52.084;5.412;2022-11-20T14:01:56;2.90;99.90
61912;DHT22;49973;52.084;5.412;2022-11-20T14:04:28;2.90;99.90
61912;DHT22;49973;52.084;5.412;2022-11-20T14:06:59;2.90;99.90
61912;DHT22;49973;52.084;5.412;2022-11-20T14:09:30;2.90;99.90
61912;DHT22;49973;52.084;5.412;2022-11-20T14:12:00;2.90;99.90
61912;DHT22;49973;52.084;5.412;2022-11-20T14:14:30;2.90;99.90
61912;DHT22;49973;52.084;5.412;2022-11-20T14:17:06;2.90;99.90
61912;DHT22;49973;52.084;5.412;2022-11-20T14:19:35;2.90;99.90
61912;DHT22;49973;52.084;5.412;2022-11-20T14:22:16;2.80;99.90
61912;DHT22;49973;52.084;5.412;2022-11-20T14:24:46;2.80;99.90
61912;DHT22;49973;52.084;5.412;2022-11-20T14:27:16;2.80;99.90
61912;DHT22;49973;52.084;5.412;2022-11-20T14:29:46;2.90;99.90
61912;DHT22;49973;52.084;5.412;2022-11-20T14:32:16;2.80;99.90
61912;DHT22;49973;52.084;5.412;2022-11-20T14:34:47;2.80;99.90
61912;DHT22;49973;52.084;5.412;2022-11-20T14:37:22;2.90;99.90
61912;DHT22;49973;52.084;5.412;2022-11-20T14:39:53;2.90;99.90
61912;DHT22;49973;52.084;5.412;2022-11-20T14:42:23;2.80;99.90
61912;DHT22;49973;52.084;5.412;2022-11-20T14:44:55;2.80;99.90
61912;DHT22;49973;52.084;5.412;2022-11-20T14:47:25;2.90;99.90
61912;DHT22;49973;52.084;5.412;2022-11-20T14:49:55;2.80;99.90
61912;DHT22;49973;52.084;5.412;2022-11-20T14:52:27;2.90;99.90
61912;DHT22;49973;52.084;5.412;2022-11-20T14:54:58;2.80;99.90
61912;DHT22;49973;52.084;5.412;2022-11-20T14:57:29;2.80;99.90
61912;DHT22;49973;52.084;5.412;2022-11-20T15:00:07;2.80;99.90
61912;DHT22;49973;52.084;5.412;2022-11-20T15:02:40;2.80;99.90
61912;DHT22;49973;52.084;5.412;2022-11-20T15:05:09;2.80;99.90
61912;DHT22;49973;52.084;5.412;2022-11-20T15:07:41;2.80;99.90
61912;DHT22;49973;52.084;5.412;2022-11-20T15:10:19;2.80;99.90
61912;DHT22;49973;52.084;5.412;2022-11-20T15:12:50;2.80;99.90
61912;DHT22;49973;52.084;5.412;2022-11-20T15:15:23;2.80;99.90
61912;DHT22;49973;52.084;5.412;2022-11-20T15:17:52;2.80;99.90
61912;DHT22;49973;52.084;5.412;2022-11-20T15:20:26;2.80;99.90
61912;DHT22;49973;52.084;5.412;2022-11-20T15:22:57;2.80;99.90
61912;DHT22;49973;52.084;5.412;2022-11-20T15:25:25;2.80;99.90
61912;DHT22;49973;52.084;5.412;2022-11-20T15:27:56;2.80;99.90
61912;DHT22;49973;52.084;5.412;2022-11-20T15:30:25;2.80;99.90
61912;DHT22;49973;52.084;5.412;2022-11-20T15:32:53;2.90;99.90
61912;DHT22;49973;52.084;5.412;2022-11-20T15:35:22;2.80;99.90
61912;DHT22;49973;52.084;5.412;2022-11-20T15:37:50;2.80;99.90
61912;DHT22;49973;52.084;5.412;2022-11-20T15:40:20;2.80;99.90
61912;DHT22;49973;52.084;5.412;2022-11-20T15:42:48;2.90;99.90
61912;DHT22;49973;52.084;5.412;2022-11-20T15:45:41;2.90;99.90
61912;DHT22;49973;52.084;5.412;2022-11-20T15:48:13;2.80;99.90
61912;DHT22;49973;52.084;5.412;2022-11-20T15:50:49;2.90;99.90
61912;DHT22;49973;52.084;5.412;2022-11-20T15:53:19;2.80;99.90
61912;DHT22;49973;52.084;5.412;2022-11-20T15:55:50;2.90;99.90
61912;DHT22;49973;52.084;5.412;2022-11-20T15:58:18;2.90;99.90
61912;DHT22;49973;52.084;5.412;2022-11-20T16:00:47;2.90;99.90
61912;DHT22;49973;52.084;5.412;2022-11-20T16:03:17;3.00;99.90
61912;DHT22;49973;52.084;5.412;2022-11-20T16:05:47;3.00;99.90
61912;DHT22;49973;52.084;5.412;2022-11-20T16:08:15;3.00;99.90
61912;DHT22;49973;52.084;5.412;2022-11-20T16:10:44;3.00;99.90
61912;DHT22;49973;52.084;5.412;2022-11-20T16:13:16;3.10;99.90
61912;DHT22;49973;52.084;5.412;2022-11-20T16:16:04;3.10;99.90